createdAt,value
2019-05-16T00:02:19.752Z,9.70
2019-05-16T00:04:50.873Z,9.70
2019-05-16T00:07:21.987Z,9.70
2019-05-16T00:09:53.072Z,9.70
2019-05-16T00:12:24.172Z,9.70
2019-05-16T00:14:58.197Z,9.70
2019-05-16T00:17:29.082Z,9.80
2019-05-16T00:20:00.193Z,9.70
2019-05-16T00:22:31.261Z,9.80
2019-05-16T00:25:02.345Z,9.90
2019-05-16T00:27:34.156Z,9.80
2019-05-16T00:30:05.289Z,9.80
2019-05-16T00:32:38.717Z,9.80
2019-05-16T00:35:09.548Z,9.80
2019-05-16T00:37:40.739Z,9.80
2019-05-16T00:40:11.851Z,9.70
2019-05-16T00:42:42.937Z,9.60
2019-05-16T00:45:14.052Z,9.60
2019-05-16T00:47:45.125Z,9.60
2019-05-16T00:50:18.234Z,9.60
2019-05-16T00:52:49.171Z,9.60
2019-05-16T00:55:20.393Z,9.60
2019-05-16T00:57:51.623Z,9.60
2019-05-16T01:00:44.935Z,9.60
2019-05-16T01:03:16.081Z,9.60
2019-05-16T01:05:48.067Z,9.60
2019-05-16T01:08:19.345Z,9.50
2019-05-16T01:10:51.400Z,9.50
2019-05-16T01:13:22.917Z,9.50
2019-05-16T01:15:53.992Z,9.50
2019-05-16T01:18:25.143Z,9.50
2019-05-16T01:20:58.395Z,9.50
2019-05-16T01:23:29.218Z,9.50
2019-05-16T01:26:01.388Z,9.50
2019-05-16T01:28:32.492Z,9.50
2019-05-16T01:31:03.569Z,9.50
2019-05-16T01:33:35.310Z,9.50
2019-05-16T01:36:08.797Z,9.50
2019-05-16T01:38:39.226Z,9.50
2019-05-16T01:41:11.377Z,9.50
2019-05-16T01:43:42.482Z,9.60
2019-05-16T01:46:13.550Z,9.60
2019-05-16T01:48:44.656Z,9.60
2019-05-16T01:51:18.202Z,9.70
2019-05-16T01:53:48.985Z,9.60
2019-05-16T01:56:20.172Z,9.60
2019-05-16T01:58:51.309Z,9.60
2019-05-16T02:01:22.384Z,9.60
2019-05-16T02:03:53.526Z,9.60
2019-05-16T02:06:24.622Z,9.60
2019-05-16T02:08:57.856Z,9.60
2019-05-16T02:11:28.647Z,9.60
2019-05-16T02:14:00.769Z,9.50
2019-05-16T02:16:31.877Z,9.50
2019-05-16T02:19:02.973Z,9.50
2019-05-16T02:21:34.133Z,9.50
2019-05-16T02:24:05.517Z,9.50
2019-05-16T02:26:38.629Z,9.50
2019-05-16T02:29:13.311Z,9.50
2019-05-16T02:31:42.481Z,9.50
2019-05-16T02:34:13.569Z,9.50
2019-05-16T02:36:44.687Z,9.50
2019-05-16T02:39:15.772Z,9.50
2019-05-16T02:41:46.901Z,9.50
2019-05-16T02:44:20.808Z,9.50
2019-05-16T02:46:51.006Z,9.50
2019-05-16T02:49:22.152Z,9.50
2019-05-16T02:51:53.279Z,9.50
2019-05-16T02:54:24.467Z,9.60
2019-05-16T02:56:55.570Z,9.60
2019-05-16T02:59:26.649Z,9.50
2019-05-16T03:02:00.628Z,9.60
2019-05-16T03:04:30.834Z,9.60
2019-05-16T03:07:02.238Z,9.60
2019-05-16T03:09:33.335Z,9.50
2019-05-16T03:12:04.500Z,9.50
2019-05-16T03:14:35.569Z,9.50
2019-05-16T03:17:06.742Z,9.50
2019-05-16T03:19:41.477Z,9.40
2019-05-16T03:22:11.720Z,9.40
2019-05-16T03:24:43.033Z,9.40
2019-05-16T03:27:14.189Z,9.50
2019-05-16T03:29:45.259Z,9.50
2019-05-16T03:32:16.347Z,9.60
2019-05-16T03:34:47.539Z,9.50
2019-05-16T03:37:24.356Z,9.60
2019-05-16T03:39:51.633Z,9.70
2019-05-16T03:42:22.709Z,9.70
2019-05-16T03:44:53.786Z,9.80
2019-05-16T03:47:24.915Z,9.80
2019-05-16T03:49:55.997Z,9.70
2019-05-16T03:52:27.098Z,9.70
2019-05-16T03:55:01.382Z,9.70
2019-05-16T03:57:30.984Z,9.70
2019-05-16T04:00:02.049Z,9.70
2019-05-16T04:02:33.223Z,9.70
2019-05-16T04:05:04.402Z,9.90
2019-05-16T04:07:35.479Z,10.00
2019-05-16T04:10:10.689Z,10.10
2019-05-16T04:12:42.075Z,10.30
2019-05-16T04:15:13.456Z,10.40
2019-05-16T04:17:44.667Z,10.30
2019-05-16T04:20:15.810Z,10.40
2019-05-16T04:22:47.021Z,10.40
2019-05-16T04:25:21.354Z,10.40
2019-05-16T04:27:50.967Z,10.50
2019-05-16T04:30:22.268Z,10.70
2019-05-16T04:32:53.361Z,10.70
2019-05-16T04:35:24.505Z,10.70
2019-05-16T04:37:55.662Z,10.70
2019-05-16T04:40:26.764Z,10.60
2019-05-16T04:43:00.999Z,10.60
2019-05-16T04:45:31.804Z,10.70
2019-05-16T04:48:04.065Z,10.70
2019-05-16T04:50:35.228Z,10.80
2019-05-16T04:53:06.413Z,10.90
2019-05-16T04:55:37.582Z,10.90
2019-05-16T04:58:10.669Z,10.90
2019-05-16T05:00:42.092Z,10.90
2019-05-16T05:03:13.362Z,11.00
2019-05-16T05:05:44.481Z,11.00
2019-05-16T05:08:15.611Z,11.00
2019-05-16T05:10:46.734Z,11.20
2019-05-16T05:13:17.859Z,11.20
2019-05-16T05:15:50.931Z,11.30
2019-05-16T05:18:21.941Z,11.60
2019-05-16T05:20:54.136Z,11.70
2019-05-16T05:23:25.269Z,11.80
2019-05-16T05:25:56.382Z,11.90
2019-05-16T05:28:29.729Z,12.00
2019-05-16T05:31:00.307Z,12.20
2019-05-16T05:33:31.440Z,12.30
2019-05-16T05:36:02.555Z,12.40
2019-05-16T05:38:33.634Z,12.40
2019-05-16T05:41:04.831Z,12.50
2019-05-16T05:43:35.918Z,12.40
2019-05-16T05:46:07.087Z,12.40
2019-05-16T05:48:40.876Z,12.40
2019-05-16T05:51:11.596Z,12.50
2019-05-16T05:53:42.790Z,12.70
2019-05-16T05:56:13.911Z,13.00
2019-05-16T05:58:45.080Z,13.10
2019-05-16T06:01:16.202Z,13.30
2019-05-16T06:03:47.300Z,13.30
2019-05-16T06:06:20.825Z,13.30
2019-05-16T06:08:51.273Z,13.10
2019-05-16T06:11:23.466Z,13.00
2019-05-16T06:13:54.573Z,12.80
2019-05-16T06:16:26.769Z,12.70
2019-05-16T06:18:57.929Z,12.80
2019-05-16T06:21:33.078Z,12.90
2019-05-16T06:24:02.061Z,13.00
2019-05-16T06:26:33.179Z,12.90
2019-05-16T06:29:04.283Z,13.00
2019-05-16T06:31:35.409Z,13.00
2019-05-16T06:34:08.740Z,13.10
2019-05-16T06:36:40.671Z,13.20
2019-05-16T06:39:11.784Z,13.60
2019-05-16T06:41:42.893Z,15.20
2019-05-16T06:44:14.396Z,16.70
2019-05-16T06:46:59.728Z,17.10
2019-05-16T06:49:19.711Z,16.90
2019-05-16T06:51:51.659Z,16.80
2019-05-16T06:54:23.024Z,17.00
2019-05-16T06:56:54.148Z,17.00
2019-05-16T06:59:26.241Z,17.70
2019-05-16T07:01:57.416Z,18.20
2019-05-16T07:04:30.491Z,19.10
2019-05-16T07:07:03.165Z,19.30
2019-05-16T07:09:34.303Z,18.90
2019-05-16T07:12:05.503Z,18.60
2019-05-16T07:14:36.879Z,18.00
2019-05-16T07:17:09.745Z,17.40
2019-05-16T07:19:40.940Z,17.10
2019-05-16T07:22:13.486Z,16.60
2019-05-16T07:24:44.621Z,16.30
2019-05-16T07:27:15.746Z,15.90
2019-05-16T07:29:46.903Z,15.50
2019-05-16T07:32:19.862Z,15.40
2019-05-16T07:34:51.202Z,15.50
2019-05-16T07:37:22.363Z,15.60
2019-05-16T07:39:53.459Z,15.70
2019-05-16T07:42:24.692Z,15.40
2019-05-16T07:44:55.962Z,15.20
2019-05-16T07:47:27.069Z,15.10
2019-05-16T07:49:59.551Z,14.80
2019-05-16T07:52:35.888Z,14.70
2019-05-16T07:55:04.150Z,15.10
2019-05-16T07:57:35.271Z,15.30
2019-05-16T08:00:09.674Z,15.70
2019-05-16T08:02:41.006Z,15.70
2019-05-16T08:05:12.708Z,15.50
2019-05-16T08:07:44.398Z,15.60
2019-05-16T08:10:15.506Z,15.80
2019-05-16T08:12:47.335Z,15.90
2019-05-16T08:15:21.223Z,16.20
2019-05-16T08:17:51.873Z,16.50
2019-05-16T08:20:23.268Z,17.00
2019-05-16T08:22:54.389Z,17.30
2019-05-16T08:25:25.478Z,17.90
2019-05-16T08:27:56.730Z,18.50
2019-05-16T08:30:31.175Z,19.20
2019-05-16T08:35:33.649Z,19.80
2019-05-16T08:38:04.799Z,20.00
2019-05-16T08:41:01.290Z,20.70
2019-05-16T08:43:11.568Z,21.80
2019-05-16T08:45:41.910Z,23.00
2019-05-16T08:48:13.168Z,24.00
2019-05-16T08:53:17.077Z,25.30
2019-05-16T08:55:50.520Z,25.10
2019-05-16T08:58:22.640Z,24.50
2019-05-16T09:00:55.827Z,23.90
2019-05-16T09:03:27.014Z,23.40
2019-05-16T09:06:03.001Z,22.50
2019-05-16T09:08:32.053Z,21.80
2019-05-16T09:10:37.862Z,24.70
2019-05-16T09:11:26.892Z,21.30
2019-05-16T09:13:37.081Z,21.30
2019-05-16T09:16:08.249Z,21.90
2019-05-16T09:18:38.403Z,19.50
2019-05-16T09:18:45.293Z,22.10
2019-05-16T09:21:13.548Z,22.10
2019-05-16T09:23:46.977Z,22.30
2019-05-16T09:26:20.994Z,22.00
2019-05-16T09:28:51.603Z,21.70
2019-05-16T09:31:22.828Z,22.00
2019-05-16T09:33:56.578Z,21.80
2019-05-16T09:36:28.194Z,21.00
2019-05-16T09:38:59.585Z,21.00
2019-05-16T09:41:46.796Z,21.00
2019-05-16T09:44:04.573Z,21.20
2019-05-16T09:46:37.598Z,21.10
2019-05-16T09:49:19.619Z,21.30
2019-05-16T09:51:42.808Z,21.60
2019-05-16T09:54:13.906Z,21.90
2019-05-16T09:56:46.683Z,21.90
2019-05-16T09:59:18.080Z,21.70
2019-05-16T10:01:49.217Z,22.30
2019-05-16T10:04:20.439Z,22.30
2019-05-16T10:06:51.693Z,22.30
2019-05-16T10:09:40.215Z,22.20
2019-05-16T10:12:08.099Z,22.10
2019-05-16T10:14:30.348Z,22.30
2019-05-16T10:17:01.503Z,23.40
2019-05-16T10:19:32.639Z,24.20
2019-05-16T10:22:04.005Z,24.90
2019-05-16T10:24:37.535Z,25.20
2019-05-16T10:27:07.904Z,24.90
2019-05-16T10:29:39.092Z,23.80
2019-05-16T10:32:10.204Z,22.70
2019-05-16T10:34:41.310Z,22.70
2019-05-16T10:37:12.445Z,22.60
2019-05-16T10:39:43.530Z,22.50
2019-05-16T10:42:25.050Z,22.50
2019-05-16T10:44:48.376Z,22.40
2019-05-16T10:47:19.891Z,22.80
2019-05-16T10:49:51.019Z,23.30
2019-05-16T10:52:22.115Z,23.30
2019-05-16T10:54:58.243Z,23.40
2019-05-16T10:57:29.440Z,23.50
2019-05-16T11:00:09.682Z,23.40
2019-05-16T11:02:33.127Z,23.40
2019-05-16T11:05:24.584Z,23.40
2019-05-16T11:07:37.483Z,23.30
2019-05-16T11:10:08.672Z,23.40
2019-05-16T11:12:50.413Z,23.60
2019-05-16T11:15:12.623Z,23.90
2019-05-16T11:17:43.696Z,24.00
2019-05-16T11:20:19.617Z,23.70
2019-05-16T11:22:47.879Z,23.70
2019-05-16T11:25:28.455Z,22.70
2019-05-16T11:27:51.957Z,21.60
2019-05-16T11:30:23.090Z,21.10
2019-05-16T11:32:56.583Z,21.30
2019-05-16T11:35:27.450Z,21.30
2019-05-16T11:37:58.687Z,21.40
2019-05-16T11:40:30.404Z,21.40
2019-05-16T11:43:10.574Z,21.10
2019-05-16T11:45:36.585Z,20.50
2019-05-16T11:48:07.543Z,20.40
2019-05-16T11:50:38.787Z,20.40
2019-05-16T11:53:10.016Z,20.40
2019-05-16T11:55:51.934Z,20.60
2019-05-16T11:58:17.748Z,20.50
2019-05-16T12:00:48.617Z,20.70
2019-05-16T12:03:19.933Z,20.70
2019-05-16T12:05:51.164Z,20.90
2019-05-16T12:08:22.619Z,20.80
2019-05-16T12:10:56.243Z,20.80
2019-05-16T12:13:32.595Z,20.50
2019-05-16T12:16:00.752Z,19.90
2019-05-16T12:18:31.862Z,19.50
2019-05-16T12:21:02.993Z,19.50
2019-05-16T12:23:37.019Z,19.60
2019-05-16T12:26:07.749Z,19.80
2019-05-16T12:28:39.365Z,19.80
2019-05-16T12:31:10.541Z,20.00
2019-05-16T12:33:41.840Z,20.10
2019-05-16T12:36:12.949Z,20.30
2019-05-16T12:38:46.614Z,20.90
2019-05-16T12:41:17.675Z,21.40
2019-05-16T12:43:53.270Z,21.10
2019-05-16T12:46:21.910Z,20.90
2019-05-16T12:48:53.686Z,20.40
2019-05-16T12:51:26.485Z,20.00
2019-05-16T12:53:57.870Z,19.70
2019-05-16T12:56:29.028Z,19.70
2019-05-16T12:59:00.522Z,20.20
2019-05-16T13:01:34.340Z,20.60
2019-05-16T13:04:04.678Z,21.20
2019-05-16T13:06:37.107Z,21.30
2019-05-16T13:09:08.862Z,21.40
2019-05-16T13:11:39.991Z,21.30
2019-05-16T13:14:11.587Z,21.00
2019-05-16T13:16:42.824Z,20.60
2019-05-16T13:19:13.926Z,20.30
2019-05-16T13:21:46.979Z,20.20
2019-05-16T13:24:18.933Z,20.40
2019-05-16T13:26:51.127Z,21.10
2019-05-16T13:29:22.234Z,21.70
2019-05-16T13:31:53.353Z,22.00
2019-05-16T13:34:30.956Z,21.70
2019-05-16T13:37:02.391Z,22.00
2019-05-16T13:39:33.609Z,22.20
2019-05-16T13:42:07.716Z,22.50
2019-05-16T13:44:38.041Z,22.60
2019-05-16T13:47:09.163Z,22.90
2019-05-16T13:49:40.328Z,22.90
2019-05-16T13:52:11.427Z,22.70
2019-05-16T13:54:42.654Z,22.40
2019-05-16T13:57:13.862Z,22.00
2019-05-16T13:59:44.985Z,21.90
2019-05-16T14:02:17.361Z,22.00
2019-05-16T14:04:50.106Z,22.20
2019-05-16T14:07:21.257Z,21.70
2019-05-16T14:09:52.349Z,21.40
2019-05-16T14:12:23.710Z,21.30
2019-05-16T14:14:54.814Z,21.10
2019-05-16T14:17:27.483Z,20.90
2019-05-16T14:19:58.727Z,20.90
2019-05-16T14:22:29.929Z,21.00
2019-05-16T14:25:01.035Z,20.80
2019-05-16T14:27:32.321Z,20.40
2019-05-16T14:30:03.526Z,20.30
2019-05-16T14:32:41.315Z,20.10
2019-05-16T14:35:09.057Z,19.90
2019-05-16T14:37:40.718Z,19.90
2019-05-16T14:40:12.119Z,19.80
2019-05-16T14:42:43.628Z,19.50
2019-05-16T14:45:17.605Z,19.30
2019-05-16T14:47:49.290Z,19.10
2019-05-16T14:50:20.772Z,19.10
2019-05-16T14:52:52.045Z,18.90
2019-05-16T14:55:23.532Z,18.90
2019-05-16T14:57:56.731Z,18.60
2019-05-16T15:00:28.014Z,18.30
2019-05-16T15:03:00.506Z,18.20
2019-05-16T15:05:31.717Z,17.90
2019-05-16T15:08:02.852Z,17.70
2019-05-16T15:10:34.080Z,17.60
2019-05-16T15:13:07.748Z,17.40
2019-05-16T15:15:39.507Z,17.40
2019-05-16T15:18:10.911Z,17.40
2019-05-16T15:20:42.108Z,17.30
2019-05-16T15:23:13.292Z,17.20
2019-05-16T15:25:44.538Z,17.20
2019-05-16T15:28:17.196Z,17.10
2019-05-16T15:30:49.981Z,17.10
2019-05-16T15:33:21.177Z,17.00
2019-05-16T15:35:52.272Z,17.00
2019-05-16T15:38:23.539Z,16.80
2019-05-16T15:41:00.050Z,16.90
2019-05-16T15:43:27.785Z,16.90
2019-05-16T15:46:01.131Z,16.90
2019-05-16T15:48:32.524Z,17.00
2019-05-16T15:51:03.679Z,17.10
2019-05-16T15:53:36.259Z,17.30
2019-05-16T15:56:10.278Z,17.20
2019-05-16T15:58:40.381Z,16.90
2019-05-16T16:01:11.503Z,16.60
2019-05-16T16:03:42.766Z,16.50
2019-05-16T16:06:13.867Z,16.50
2019-05-16T16:08:46.993Z,16.40
2019-05-16T16:11:18.747Z,16.20
2019-05-16T16:13:49.993Z,15.90
2019-05-16T16:16:21.148Z,15.90
2019-05-16T16:18:52.277Z,15.70
2019-05-16T16:21:23.418Z,15.50
2019-05-16T16:23:54.594Z,15.30
2019-05-16T16:26:26.776Z,15.20
2019-05-16T16:28:58.042Z,15.20
2019-05-16T16:31:29.158Z,15.10
2019-05-16T16:34:00.269Z,15.20
2019-05-16T16:36:32.473Z,15.00
2019-05-16T16:39:04.187Z,15.10
2019-05-16T16:41:36.939Z,15.10
2019-05-16T16:44:08.297Z,15.00
2019-05-16T16:46:39.478Z,14.90
2019-05-16T16:49:10.679Z,14.80
2019-05-16T16:51:41.958Z,14.70
2019-05-16T16:54:13.119Z,14.50
2019-05-16T16:56:44.293Z,14.40
2019-05-16T16:59:17.305Z,14.40
2019-05-16T17:01:49.349Z,14.50
2019-05-16T17:04:20.568Z,14.50
2019-05-16T17:06:51.769Z,14.60
2019-05-16T17:09:22.898Z,14.60
2019-05-16T17:11:54.006Z,14.50
2019-05-16T17:14:26.338Z,14.40
2019-05-16T17:16:57.686Z,14.30
2019-05-16T17:19:28.822Z,14.20
2019-05-16T17:22:11.513Z,14.10
2019-05-16T17:24:32.877Z,14.00
2019-05-16T17:27:03.990Z,13.90
2019-05-16T17:29:36.937Z,13.80
2019-05-16T17:32:10.159Z,13.70
2019-05-16T17:34:41.281Z,13.50
2019-05-16T17:37:12.446Z,13.50
2019-05-16T17:39:43.686Z,13.40
2019-05-16T17:42:16.557Z,13.30
2019-05-16T17:44:47.943Z,13.30
2019-05-16T17:47:19.126Z,13.30
2019-05-16T17:49:50.428Z,13.30
2019-05-16T17:52:21.553Z,13.30
2019-05-16T17:54:53.347Z,13.20
2019-05-16T17:57:24.604Z,13.10
2019-05-16T17:59:57.433Z,13.00
2019-05-16T18:02:28.750Z,12.90
2019-05-16T18:04:59.859Z,12.90
2019-05-16T18:07:30.961Z,12.80
2019-05-16T18:10:07.269Z,12.70
2019-05-16T18:12:38.025Z,12.60
2019-05-16T18:15:09.183Z,12.60
2019-05-16T18:17:40.342Z,12.60
2019-05-16T18:20:11.469Z,12.50
2019-05-16T18:22:42.555Z,12.40
2019-05-16T18:25:13.705Z,12.40
2019-05-16T18:27:44.839Z,12.30
2019-05-16T18:30:16.941Z,12.30
2019-05-16T18:32:48.011Z,12.20
2019-05-16T18:35:20.210Z,12.10
2019-05-16T18:37:51.375Z,12.10
2019-05-16T18:40:22.523Z,12.10
2019-05-16T18:42:53.634Z,12.00
2019-05-16T18:45:26.940Z,12.00
2019-05-16T18:47:57.675Z,12.00
2019-05-16T18:50:28.832Z,11.90
2019-05-16T18:52:59.938Z,11.90
2019-05-16T18:55:31.060Z,11.80
2019-05-16T18:58:04.844Z,11.80
2019-05-16T19:00:37.290Z,11.80
2019-05-16T19:03:08.142Z,11.80
2019-05-16T19:05:39.495Z,11.70
2019-05-16T19:08:10.750Z,11.70
2019-05-16T19:10:41.867Z,11.70
2019-05-16T19:13:12.980Z,11.70
2019-05-16T19:15:46.580Z,11.70
2019-05-16T19:18:17.136Z,11.80
2019-05-16T19:20:49.213Z,11.70
2019-05-16T19:23:20.383Z,11.60
2019-05-16T19:25:51.614Z,11.70
2019-05-16T19:28:22.766Z,11.60
2019-05-16T19:30:53.851Z,11.70
2019-05-16T19:33:25.018Z,11.60
2019-05-16T19:35:56.677Z,11.60
2019-05-16T19:38:29.377Z,11.70
2019-05-16T19:41:00.731Z,11.70
2019-05-16T19:43:32.121Z,11.60
2019-05-16T19:46:03.415Z,11.60
2019-05-16T19:48:36.906Z,11.60
2019-05-16T19:51:08.085Z,11.60
2019-05-16T19:53:42.255Z,11.60
2019-05-16T19:56:13.718Z,11.70
2019-05-16T19:58:46.638Z,11.70
2019-05-16T20:01:17.816Z,11.70
2019-05-16T20:03:48.957Z,11.70
2019-05-16T20:06:20.110Z,11.70
2019-05-16T20:08:51.696Z,11.60
2019-05-16T20:11:22.765Z,11.60
2019-05-16T20:13:54.041Z,11.60
2019-05-16T20:16:27.325Z,11.60
2019-05-16T20:18:58.102Z,11.60
2019-05-16T20:21:29.305Z,11.40
2019-05-16T20:24:00.567Z,11.40
2019-05-16T20:26:31.650Z,11.30
2019-05-16T20:29:02.872Z,11.30
2019-05-16T20:31:33.971Z,11.30
2019-05-16T20:34:09.046Z,11.30
2019-05-16T20:36:38.954Z,11.30
2019-05-16T20:39:10.083Z,11.30
2019-05-16T20:41:41.268Z,11.30
2019-05-16T20:44:12.449Z,11.20
2019-05-16T20:46:43.547Z,11.20
2019-05-16T20:49:16.788Z,11.00
2019-05-16T20:51:49.983Z,11.00
2019-05-16T20:54:21.320Z,10.90
2019-05-16T20:56:52.490Z,10.80
2019-05-16T20:59:23.664Z,10.80
2019-05-16T21:01:57.338Z,10.70
2019-05-16T21:04:27.554Z,10.90
2019-05-16T21:07:05.708Z,10.90
2019-05-16T21:09:31.484Z,10.90
2019-05-16T21:12:02.598Z,10.90
2019-05-16T21:14:33.750Z,10.70
2019-05-16T21:17:06.634Z,10.80
2019-05-16T21:19:39.266Z,10.80
2019-05-16T21:22:11.620Z,10.90
2019-05-16T21:24:42.701Z,10.90
2019-05-16T21:27:13.812Z,10.80
2019-05-16T21:29:47.105Z,10.90
2019-05-16T21:32:17.766Z,10.90
2019-05-16T21:34:48.850Z,10.90
2019-05-16T21:37:20.690Z,10.90
2019-05-16T21:39:52.258Z,10.90
2019-05-16T21:42:23.371Z,10.90
2019-05-16T21:44:56.878Z,10.80
2019-05-16T21:47:27.691Z,10.70
2019-05-16T21:49:58.930Z,10.60
2019-05-16T21:52:30.061Z,10.40
2019-05-16T21:55:01.171Z,10.40
2019-05-16T21:57:32.555Z,10.30
2019-05-16T22:00:06.248Z,10.30
2019-05-16T22:02:38.297Z,10.10
2019-05-16T22:05:09.455Z,9.90
2019-05-16T22:07:42.158Z,9.80
2019-05-16T22:10:13.319Z,9.90
2019-05-16T22:12:47.467Z,9.80
2019-05-16T22:15:17.665Z,9.90
2019-05-16T22:17:50.419Z,9.90
2019-05-16T22:20:21.782Z,9.90
2019-05-16T22:22:52.908Z,9.90
2019-05-16T22:25:24.063Z,9.90
2019-05-16T22:27:57.376Z,9.90
2019-05-16T22:30:27.979Z,9.70
2019-05-16T22:32:59.092Z,9.80
2019-05-16T22:35:30.223Z,9.70
2019-05-16T22:38:01.360Z,9.70
2019-05-16T22:40:33.365Z,9.60
2019-05-16T22:43:09.770Z,9.60
2019-05-16T22:45:37.578Z,9.50
2019-05-16T22:48:08.784Z,9.60
2019-05-16T22:50:40.996Z,9.40
2019-05-16T22:53:12.112Z,9.40
2019-05-16T22:55:44.328Z,9.40
2019-05-16T22:58:16.378Z,9.50
2019-05-16T23:00:47.894Z,9.40
2019-05-16T23:03:19.007Z,9.30
2019-05-16T23:05:50.075Z,9.40
2019-05-16T23:08:21.178Z,9.40
2019-05-16T23:10:52.315Z,9.40
2019-05-16T23:13:23.448Z,9.40
2019-05-16T23:15:57.007Z,9.40
2019-05-16T23:18:27.507Z,9.40
2019-05-16T23:20:58.607Z,9.40
2019-05-16T23:23:29.747Z,9.40
2019-05-16T23:26:00.900Z,9.40
2019-05-16T23:28:32.051Z,9.40
2019-05-16T23:31:03.166Z,9.40
2019-05-16T23:33:36.360Z,9.50
2019-05-16T23:36:07.400Z,9.50
2019-05-16T23:38:39.313Z,9.40
2019-05-16T23:41:10.824Z,9.40
2019-05-16T23:43:42.136Z,9.40
2019-05-16T23:46:13.253Z,9.40
2019-05-16T23:48:44.511Z,9.30
2019-05-16T23:51:16.954Z,9.30
2019-05-16T23:53:48.259Z,9.30
2019-05-16T23:56:19.373Z,9.30
2019-05-16T23:58:51.628Z,9.40
